Terminal Aerodrome Forecast
Issued by NWS

Home | Current Version | Previous Version | Text Only | Print | Product List | Glossary On
Versions: 1 2 3 4 5 6 7 8 9 10
000
FTUS43 KPAH 242340
TAFOWB
TAF
KOWB 242340Z 2500/2524 00000KT P6SM SCT200
     FM250800 00000KT 6SM BR SKC
     FM251300 00000KT P6SM SKC
     FM251600 16003KT P6SM FEW050=

USA.gov is the U.S. government's official web portal to all federal, state and local government web resources and services.